Time;durP1;ratioP1;P1;durP2;ratioP2;P2;SDS_P1;SDS_P2;PMS_P1;PMS_P2;Temp;Humidity;BMP_temperature;BMP_pressure;BME280_temperature;BME280_humidity;BME280_pressure;Samples;Min_cycle;Max_cycle;Signal;HPM_P1;HPM_P2
2023/07/11 00:00:08;;;;;;;0.00;0.00;;;;;;;15.76;100.00;99994.41;5060899;28;20016;-73
2023/07/11 00:02:34;;;;;;;0.00;0.00;;;;;;;15.80;100.00;99989.13;5050769;28;20025;-76
2023/07/11 00:05:00;;;;;;;0.00;0.00;;;;;;;15.83;100.00;99994.84;5060235;28;20032;-74
2023/07/11 00:07:26;;;;;;;0.00;0.00;;;;;;;15.74;100.00;99984.81;5071475;28;20055;-76
2023/07/11 00:09:53;;;;;;;0.00;0.00;;;;;;;15.81;100.00;99991.59;5065015;28;20119;-74
2023/07/11 00:12:19;;;;;;;0.00;0.00;;;;;;;15.79;100.00;99999.34;5054557;28;20051;-74
2023/07/11 00:14:45;;;;;;;0.00;0.00;;;;;;;15.76;100.00;99977.88;5054415;28;20039;-76
2023/07/11 00:17:11;;;;;;;0.00;0.00;;;;;;;15.69;100.00;99963.72;5060097;28;20098;-77
2023/07/11 00:20:11;;;;;;;0.00;0.00;;;;;;;15.76;100.00;99971.56;5047315;28;20074;-75
2023/07/11 00:22:37;;;;;;;0.00;0.00;;;;;;;15.68;100.00;99956.56;5014569;28;20493;-75
2023/07/11 00:25:04;;;;;;;0.00;0.00;;;;;;;15.77;100.00;99968.50;5058338;28;20021;-75
2023/07/11 00:27:30;;;;;;;0.00;0.00;;;;;;;15.71;100.00;99953.19;5044522;28;20028;-77
2023/07/11 00:29:55;;;;;;;0.00;0.00;;;;;;;15.66;100.00;99936.78;5053010;28;20033;-76
2023/07/11 00:32:21;;;;;;;0.00;0.00;;;;;;;15.83;100.00;99960.94;5033964;28;20600;-77
2023/07/11 00:34:49;;;;;;;0.00;0.00;;;;;;;15.73;100.00;99945.44;5052903;28;20035;-77
2023/07/11 00:37:15;;;;;;;0.00;0.00;;;;;;;15.79;100.00;99948.91;5050254;28;20032;-75
2023/07/11 00:39:42;;;;;;;0.00;0.00;;;;;;;15.79;100.00;99948.91;5052281;28;20479;-75
2023/07/11 00:42:08;;;;;;;0.00;0.00;;;;;;;15.80;100.00;99925.72;5058725;28;20045;-76
2023/07/11 00:44:52;;;;;;;0.00;0.00;;;;;;;15.90;100.00;99943.94;5051505;28;20025;-76
2023/07/11 00:47:19;;;;;;;0.00;0.00;;;;;;;15.86;100.00;99944.59;5070596;28;20020;-76
2023/07/11 00:49:46;;;;;;;0.00;0.00;;;;;;;15.93;100.00;99943.31;5052796;28;20028;-76
2023/07/11 00:52:15;;;;;;;0.00;0.00;;;;;;;15.90;100.00;99919.94;5044226;28;20059;-75
2023/07/11 00:54:44;;;;;;;0.00;0.00;;;;;;;15.87;100.00;99907.63;5053534;28;20028;-76
2023/07/11 00:57:17;;;;;;;0.00;0.00;;;;;;;15.92;100.00;99908.63;5051175;28;20116;-76
2023/07/11 00:59:43;;;;;;;0.00;0.00;;;;;;;16.10;100.00;99948.97;5075401;28;20116;-75
2023/07/11 01:02:13;;;;;;;0.00;0.00;;;;;;;16.13;100.00;99926.25;5047715;28;20060;-76
2023/07/11 01:04:39;;;;;;;0.00;0.00;;;;;;;16.13;100.00;99920.75;5055700;28;20013;-75
2023/07/11 01:07:07;;;;;;;0.00;0.00;;;;;;;15.98;100.00;99890.81;5048653;28;20028;-75
2023/07/11 01:09:35;;;;;;;0.00;0.00;;;;;;;16.18;100.00;99915.09;5058440;28;20016;-76
2023/07/11 01:12:05;;;;;;;0.00;0.00;;;;;;;16.18;100.00;99923.38;5062261;28;20043;-76
2023/07/11 01:14:30;;;;;;;0.00;0.00;;;;;;;16.22;100.00;99913.34;5066315;28;20053;-74
2023/07/11 01:16:56;;;;;;;0.00;0.00;;;;;;;16.19;100.00;99904.88;5061424;28;20063;-74
2023/07/11 01:19:23;;;;;;;0.00;0.00;;;;;;;16.23;100.00;99906.69;5068484;28;20027;-75
2023/07/11 01:21:49;;;;;;;0.00;0.00;;;;;;;16.19;100.00;99908.47;5059195;28;20036;-75
2023/07/11 01:24:15;;;;;;;0.00;0.00;;;;;;;16.20;100.00;99899.03;5059504;28;20031;-74
2023/07/11 01:26:40;;;;;;;0.00;0.00;;;;;;;16.25;100.00;99905.56;5049356;28;20111;-77
2023/07/11 01:29:06;;;;;;;0.00;0.00;;;;;;;16.15;100.00;99896.44;5032755;28;20109;-76
2023/07/11 01:31:36;;;;;;;0.00;0.00;;;;;;;16.10;100.00;99885.53;5062906;28;20021;-77
2023/07/11 01:34:03;;;;;;;0.00;0.00;;;;;;;16.16;100.00;99887.00;5054247;28;20090;-78
2023/07/11 01:36:29;;;;;;;0.00;0.00;;;;;;;16.20;100.00;99904.56;5052667;28;20051;-76
2023/07/11 01:39:06;;;;;;;;;;;;;;;;;;;;;
2023/07/11 01:41:32;;;;;;;0.00;0.00;;;;;;;16.14;100.00;99889.28;5047393;28;20028;-77
2023/07/11 01:43:58;;;;;;;0.00;0.00;;;;;;;16.16;100.00;99892.53;5058537;28;20531;-76
2023/07/11 01:46:26;;;;;;;0.00;0.00;;;;;;;16.21;100.00;99906.19;5064201;28;20433;-75
2023/07/11 01:48:54;;;;;;;0.00;0.00;;;;;;;16.19;100.00;99902.13;5065785;28;20033;-76
2023/07/11 01:51:19;;;;;;;0.00;0.00;;;;;;;16.21;100.00;99910.91;5038941;28;20116;-78
2023/07/11 01:53:45;;;;;;;0.00;0.00;;;;;;;16.06;100.00;99906.59;5049640;28;20025;-76
2023/07/11 01:56:10;;;;;;;0.00;0.00;;;;;;;15.85;100.00;99896.06;5049251;28;20037;-77
2023/07/11 01:58:38;;;;;;;0.00;0.00;;;;;;;15.80;100.00;99907.25;5055241;28;20374;-77
2023/07/11 02:01:05;;;;;;;0.00;0.00;;;;;;;15.59;100.00;99895.06;5056927;28;20570;-78
2023/07/11 02:03:31;;;;;;;0.00;0.00;;;;;;;15.48;100.00;99884.28;5029268;28;20078;-77
2023/07/11 02:05:56;;;;;;;0.00;0.00;;;;;;;15.49;100.00;99902.44;5032036;28;20052;-77
2023/07/11 02:08:22;;;;;;;0.00;0.00;;;;;;;15.48;100.00;99906.31;5059415;28;20029;-77
2023/07/11 02:10:47;;;;;;;0.00;0.00;;;;;;;15.32;100.00;99891.28;5053018;28;20039;-77
2023/07/11 02:13:13;;;;;;;0.00;0.00;;;;;;;15.47;100.00;99917.66;5050987;28;20103;-78
2023/07/11 02:15:39;;;;;;;0.00;0.00;;;;;;;15.28;100.00;99891.06;5035438;28;20056;-78
2023/07/11 02:18:04;;;;;;;0.00;0.00;;;;;;;15.31;100.00;99895.16;5064107;28;20032;-78
2023/07/11 02:20:30;;;;;;;0.00;0.00;;;;;;;15.24;100.00;99894.78;5071236;28;20084;-78
2023/07/11 02:23:02;;;;;;;0.00;0.00;;;;;;;15.21;100.00;99892.63;5064880;28;20043;-77
2023/07/11 02:25:28;;;;;;;0.00;0.00;;;;;;;15.20;100.00;99894.59;5067708;28;20023;-78
2023/07/11 02:27:56;;;;;;;0.00;0.00;;;;;;;15.16;100.00;99877.06;5057209;28;20030;-77
2023/07/11 02:30:21;;;;;;;0.00;0.00;;;;;;;15.33;100.00;99899.25;5067084;28;20021;-77
2023/07/11 02:32:46;;;;;;;0.00;0.00;;;;;;;15.17;100.00;99890.50;5056527;28;20114;-77
2023/07/11 02:35:12;;;;;;;0.00;0.00;;;;;;;15.16;100.00;99894.38;5063438;28;20029;-76
2023/07/11 02:37:40;;;;;;;0.00;0.00;;;;;;;15.16;100.00;99894.38;5059353;28;20025;-78
2023/07/11 02:40:06;;;;;;;0.00;0.00;;;;;;;15.15;100.00;99897.44;5048646;28;20021;-78
2023/07/11 02:42:34;;;;;;;0.00;0.00;;;;;;;15.09;100.00;99891.22;5068762;28;20056;-77
2023/07/11 02:45:07;;;;;;;0.00;0.00;;;;;;;14.90;100.00;99876.78;5059298;28;20067;-77
2023/07/11 02:47:32;;;;;;;0.00;0.00;;;;;;;15.06;100.00;99908.38;5064616;28;20016;-78
2023/07/11 02:50:00;;;;;;;0.00;0.00;;;;;;;15.05;100.00;99919.69;5052971;28;20537;-77
2023/07/11 02:52:29;;;;;;;0.00;0.00;;;;;;;14.91;100.00;99908.69;5056074;28;20032;-78
2023/07/11 02:54:54;;;;;;;0.00;0.00;;;;;;;14.83;100.00;99902.81;5052502;28;20032;-76
2023/07/11 02:57:19;;;;;;;0.00;0.00;;;;;;;14.75;100.00;99900.75;5048176;28;20032;-78
2023/07/11 02:59:47;;;;;;;0.00;0.00;;;;;;;14.64;100.00;99882.81;5046915;28;20025;-77
2023/07/11 03:02:15;;;;;;;0.00;0.00;;;;;;;14.77;100.00;99903.22;5064700;28;20375;-77
2023/07/11 03:04:43;;;;;;;0.00;0.00;;;;;;;14.70;100.00;99903.59;5041553;28;20028;-77
2023/07/11 03:07:08;;;;;;;0.00;0.00;;;;;;;14.76;100.00;99921.66;5071245;28;20016;-77
2023/07/11 03:09:34;;;;;;;0.00;0.00;;;;;;;14.74;100.00;99910.13;5070415;28;20031;-78
2023/07/11 03:12:00;;;;;;;0.00;0.00;;;;;;;14.58;100.00;99889.53;5061310;28;20032;-79
2023/07/11 03:14:27;;;;;;;0.00;0.00;;;;;;;14.57;100.00;99890.63;5030882;28;20025;-79
2023/07/11 03:16:53;;;;;;;0.00;0.00;;;;;;;14.52;100.00;99896.25;5034365;28;20021;-80
2023/07/11 03:19:33;;;;;;;;;;;;;;;;;;;;;
2023/07/11 03:22:08;;;;;;;0.00;0.00;;;;;;;14.34;100.00;99873.22;5068496;28;20032;-81
2023/07/11 03:24:53;;;;;;;0.00;0.00;;;;;;;14.46;100.00;99893.59;5063011;28;20028;-80
2023/07/11 03:27:32;;;;;;;;;;;;;;;;;;;;;
2023/07/11 03:29:58;;;;;;;0.00;0.00;;;;;;;14.54;100.00;99905.81;5065504;28;20028;-80
2023/07/11 03:32:23;;;;;;;0.00;0.00;;;;;;;14.42;100.00;99892.56;5048983;28;20111;-78
2023/07/11 03:34:57;;;;;;;0.00;0.00;;;;;;;14.27;100.00;99876.38;5050080;28;20039;-78
2023/07/11 03:37:30;;;;;;;;;;;;;;;14.33;100.00;99910.91;5049813;28;20049;-79
2023/07/11 03:39:58;;;;;;;0.00;0.00;;;;;;;13.93;100.00;99863.78;5057599;28;19963;-80
2023/07/11 03:42:26;;;;;;;0.00;0.00;;;;;;;14.06;100.00;99896.00;5053947;28;20128;-77
2023/07/11 03:44:52;;;;;;;0.00;0.00;;;;;;;14.00;100.00;99890.88;5059569;28;20025;-78
2023/07/11 03:47:17;;;;;;;0.00;0.00;;;;;;;13.94;100.00;99891.00;5052085;28;20115;-78
2023/07/11 03:49:43;;;;;;;0.00;0.00;;;;;;;13.82;100.00;99896.13;5073975;28;20037;-78
2023/07/11 03:52:11;;;;;;;0.00;0.00;;;;;;;13.87;100.00;99903.47;5027914;28;20021;-77
2023/07/11 03:54:46;;;;;;;0.00;0.00;;;;;;;13.69;100.00;99878.47;5032442;28;20172;-78
2023/07/11 03:57:15;;;;;;;0.00;0.00;;;;;;;13.73;100.00;99875.97;5051195;28;21960;-77
2023/07/11 03:59:40;;;;;;;0.00;0.00;;;;;;;13.67;100.00;99883.47;5067347;28;20027;-79
2023/07/11 04:02:06;;;;;;;0.00;0.00;;;;;;;13.56;100.00;99874.56;5037574;28;20024;-78
2023/07/11 04:04:33;;;;;;;0.00;0.00;;;;;;;13.73;100.00;99898.75;5076604;28;20031;-78
2023/07/11 04:06:58;;;;;;;0.00;0.00;;;;;;;13.69;100.00;99886.72;5046172;28;20047;-77
2023/07/11 04:09:24;;;;;;;0.00;0.00;;;;;;;13.77;100.00;99905.28;5062193;28;20012;-77
2023/07/11 04:11:56;;;;;;;0.00;0.00;;;;;;;13.66;100.00;99881.03;5032069;28;20032;-77
2023/07/11 04:14:22;;;;;;;0.00;0.00;;;;;;;13.78;100.00;99906.09;5033024;28;20055;-77
2023/07/11 04:16:47;;;;;;;0.00;0.00;;;;;;;13.78;100.00;99912.41;5044995;28;20119;-78
2023/07/11 04:19:20;;;;;;;0.00;0.00;;;;;;;13.58;100.00;99885.25;5061869;28;20031;-78
2023/07/11 04:21:46;;;;;;;0.00;0.00;;;;;;;13.46;100.00;99871.16;5031645;28;20032;-77
2023/07/11 04:24:11;;;;;;;0.00;0.00;;;;;;;13.56;100.00;99887.50;5054731;28;20051;-77
2023/07/11 04:26:37;;;;;;;0.00;0.00;;;;;;;13.39;100.00;99866.03;5072528;28;20829;-76
2023/07/11 04:29:06;;;;;;;0.00;0.00;;;;;;;13.41;100.00;99870.13;5066810;28;20029;-76
2023/07/11 04:31:39;;;;;;;0.00;0.00;;;;;;;13.66;100.00;99898.31;5054106;28;20538;-77
2023/07/11 04:34:07;;;;;;;0.00;0.00;;;;;;;13.68;100.00;99890.59;5072681;28;20441;-78
2023/07/11 04:36:32;;;;;;;0.00;0.00;;;;;;;13.83;100.00;99891.44;5043010;28;20024;-78
2023/07/11 04:39:19;;;;;;;0.00;0.00;;;;;;;13.96;100.00;99888.75;5072362;28;20859;-78
2023/07/11 04:41:46;;;;;;;0.00;0.00;;;;;;;14.01;100.00;99865.84;5084731;28;20391;-78
2023/07/11 04:44:11;;;;;;;0.00;0.00;;;;;;;14.19;100.00;99871.56;5032361;28;20038;-78
2023/07/11 04:46:37;;;;;;;0.00;0.00;;;;;;;14.27;100.00;99863.44;5037733;28;20088;-78
2023/07/11 04:49:10;;;;;;;0.00;0.00;;;;;;;14.39;100.00;99860.19;5082695;28;20040;-78
2023/07/11 04:51:37;;;;;;;0.00;0.00;;;;;;;14.51;100.00;99864.34;5062561;28;20050;-76
2023/07/11 04:54:08;;;;;;;0.00;0.00;;;;;;;14.68;100.00;99889.34;5057164;28;20145;-77
2023/07/11 04:56:40;;;;;;;0.00;0.00;;;;;;;14.73;100.00;99880.16;5053503;28;20147;-75
2023/07/11 04:59:05;;;;;;;0.00;0.00;;;;;;;14.81;100.00;99877.50;5053292;28;20030;-77
2023/07/11 05:01:31;;;;;;;0.00;0.00;;;;;;;14.79;100.00;99878.94;5050912;28;20123;-76
2023/07/11 05:03:56;;;;;;;0.00;0.00;;;;;;;14.84;100.00;99890.66;5053955;28;20082;-78
2023/07/11 05:06:22;;;;;;;0.00;0.00;;;;;;;14.93;100.00;99895.44;5056599;28;20117;-78
2023/07/11 05:08:48;;;;;;;0.00;0.00;;;;;;;14.85;100.00;99872.22;5056765;28;20023;-77
2023/07/11 05:11:17;;;;;;;0.00;0.00;;;;;;;14.86;100.00;99878.53;5065319;28;20020;-77
2023/07/11 05:13:44;;;;;;;0.00;0.00;;;;;;;15.03;100.00;99905.44;5068686;28;20028;-77
2023/07/11 05:16:16;;;;;;;0.00;0.00;;;;;;;15.01;100.00;99886.47;5060330;28;20078;-76
2023/07/11 05:18:42;;;;;;;0.00;0.00;;;;;;;15.08;100.00;99903.34;5059070;28;20467;-77
2023/07/11 05:21:10;;;;;;;0.00;0.00;;;;;;;14.91;100.00;99870.97;5086262;28;20059;-76
2023/07/11 05:23:36;;;;;;;0.00;0.00;;;;;;;15.06;100.00;99877.28;5070575;28;20055;-75
2023/07/11 05:26:02;;;;;;;0.00;0.00;;;;;;;15.21;100.00;99895.41;5057455;28;20343;-75
2023/07/11 05:28:30;;;;;;;0.00;0.00;;;;;;;15.26;100.00;99895.25;5061550;28;20020;-77
2023/07/11 05:30:57;;;;;;;0.00;0.00;;;;;;;15.23;100.00;99860.91;5076379;28;20659;-76
2023/07/11 05:33:23;;;;;;;0.00;0.00;;;;;;;15.48;100.00;99867.75;5062893;28;20059;-77
2023/07/11 05:35:59;;;;;;;0.00;0.00;;;;;;;15.58;100.00;99871.38;5052633;28;20040;-76
2023/07/11 05:38:25;;;;;;;0.00;0.00;;;;;;;15.69;100.00;99878.28;5070629;28;20028;-77
2023/07/11 05:40:55;;;;;;;0.00;0.00;;;;;;;15.66;100.00;99868.69;5036782;28;20482;-74
2023/07/11 05:43:21;;;;;;;0.00;0.00;;;;;;;15.62;100.00;99886.16;5059712;28;20121;-77
2023/07/11 05:45:46;;;;;;;0.00;0.00;;;;;;;15.45;100.00;99862.88;5038058;28;20063;-77
2023/07/11 05:48:12;;;;;;;0.00;0.00;;;;;;;15.67;100.00;99870.31;5036841;28;20055;-77
2023/07/11 05:50:38;;;;;;;0.00;0.00;;;;;;;15.88;100.00;99870.63;5064363;28;20082;-77
2023/07/11 05:53:03;;;;;;;0.00;0.00;;;;;;;16.21;100.00;99873.09;5056918;28;20028;-77
2023/07/11 05:55:28;;;;;;;0.00;0.00;;;;;;;16.43;100.00;99874.16;5042102;28;20035;-76
2023/07/11 05:57:54;;;;;;;0.00;0.00;;;;;;;16.60;100.00;99889.16;5056164;28;20482;-77
2023/07/11 06:00:20;;;;;;;0.00;0.00;;;;;;;16.53;100.00;99884.91;5040762;28;20039;-77
2023/07/11 06:02:55;;;;;;;;;;;;;;;;;;;;;
2023/07/11 06:05:22;;;;;;;0.00;0.00;;;;;;;16.21;100.00;99888.84;5082936;28;20016;-75
2023/07/11 06:07:47;;;;;;;0.00;0.00;;;;;;;16.16;100.00;99889.75;5072487;28;20033;-75
2023/07/11 06:10:13;;;;;;;0.00;0.00;;;;;;;16.35;100.00;99906.13;5041552;28;20028;-75
2023/07/11 06:12:38;;;;;;;0.00;0.00;;;;;;;16.46;100.00;99917.69;5065200;28;20035;-76
2023/07/11 06:15:04;;;;;;;0.00;0.00;;;;;;;16.57;100.00;99898.88;5051136;28;20371;-75
2023/07/11 06:17:29;;;;;;;0.00;0.00;;;;;;;16.63;100.00;99880.22;5062855;28;20021;-75
2023/07/11 06:19:55;;;;;;;0.00;0.00;;;;;;;16.54;100.00;99875.50;5066022;28;20039;-75
2023/07/11 06:22:23;;;;;;;0.00;0.00;;;;;;;16.72;100.00;99886.59;5097153;28;21290;-75
2023/07/11 06:24:48;;;;;;;0.00;0.00;;;;;;;16.95;100.00;99883.75;5081444;28;20552;-75
2023/07/11 06:27:14;;;;;;;0.00;0.00;;;;;;;17.11;100.00;99882.13;5068448;28;20039;-77
2023/07/11 06:29:41;;;;;;;0.00;0.00;;;;;;;17.14;100.00;99875.97;5043365;28;20081;-79
2023/07/11 06:32:07;;;;;;;0.00;0.00;;;;;;;17.54;100.00;99888.84;5052633;28;20036;-77
2023/07/11 06:34:32;;;;;;;0.00;0.00;;;;;;;17.74;100.00;99892.88;5083888;28;20031;-77
2023/07/11 06:36:58;;;;;;;0.00;0.00;;;;;;;17.74;100.00;99887.34;5049900;28;20063;-80
2023/07/11 06:39:25;;;;;;;0.00;0.00;;;;;;;17.67;100.00;99892.56;5063021;28;20029;-78
2023/07/11 06:41:50;;;;;;;0.00;0.00;;;;;;;17.32;100.00;99864.94;5043990;28;20067;-76
2023/07/11 06:44:15;;;;;;;0.00;0.00;;;;;;;17.20;100.00;99866.41;5075873;28;20520;-77
2023/07/11 06:46:50;;;;;;;0.00;0.00;;;;;;;17.31;100.00;99858.59;5052012;28;20024;-75
2023/07/11 06:49:15;;;;;;;0.00;0.00;;;;;;;17.33;100.00;99878.41;5062577;28;20081;-76
2023/07/11 06:51:41;;;;;;;0.00;0.00;;;;;;;17.22;99.33;99877.13;5060411;28;20032;-76
2023/07/11 06:54:06;;;;;;;0.00;0.00;;;;;;;17.30;98.32;99872.75;5044655;28;20391;-75
2023/07/11 06:56:34;;;;;;;0.00;0.00;;;;;;;17.68;98.35;99872.06;5037345;28;20032;-75
2023/07/11 06:59:03;;;;;;;0.00;0.00;;;;;;;17.94;96.44;99875.63;5055811;28;20066;-77
2023/07/11 07:01:30;;;;;;;0.00;0.00;;;;;;;18.19;95.29;99870.34;5080836;28;20032;-76
2023/07/11 07:03:59;;;;;;;0.00;0.00;;;;;;;18.44;95.68;99856.72;5060469;28;20020;-76
2023/07/11 07:06:27;;;;;;;0.00;0.00;;;;;;;18.66;92.00;99884.16;5062321;28;20020;-75
2023/07/11 07:08:52;;;;;;;0.00;0.00;;;;;;;18.54;92.80;99874.94;5057575;28;20032;-77
2023/07/11 07:11:25;;;;;;;0.00;0.00;;;;;;;18.64;93.08;99891.97;5054525;28;20039;-78
2023/07/11 07:13:53;;;;;;;0.00;0.00;;;;;;;18.70;91.31;99872.41;5084766;28;20036;-75
2023/07/11 07:16:19;;;;;;;0.00;0.00;;;;;;;18.64;90.04;99878.13;5060723;28;20032;-75
2023/07/11 07:18:44;;;;;;;0.00;0.00;;;;;;;18.83;90.08;99883.22;5052966;28;20673;-77
2023/07/11 07:21:09;;;;;;;0.00;0.00;;;;;;;19.01;88.28;99886.75;5073452;28;20075;-76
2023/07/11 07:23:37;;;;;;;0.00;0.00;;;;;;;18.91;87.88;99873.31;5066428;28;20024;-75
2023/07/11 07:26:04;;;;;;;0.00;0.00;;;;;;;18.99;85.92;99897.34;5067646;28;20023;-77
2023/07/11 07:28:31;;;;;;;0.00;0.00;;;;;;;18.97;84.82;99883.03;5052900;28;20075;-77
2023/07/11 07:30:58;;;;;;;0.00;0.00;;;;;;;18.92;84.43;99883.22;5071532;28;20028;-76
2023/07/11 07:33:26;;;;;;;0.00;0.00;;;;;;;18.87;82.80;99877.09;5044817;28;20111;-75
2023/07/11 07:36:00;;;;;;;0.00;0.00;;;;;;;18.69;84.03;99876.31;5083229;28;20024;-73
2023/07/11 07:38:27;;;;;;;0.00;0.00;;;;;;;18.76;85.08;99865.53;5059946;28;20063;-76
2023/07/11 07:40:54;;;;;;;0.00;0.00;;;;;;;18.93;83.19;99871.00;5084709;28;20397;-76
2023/07/11 07:43:21;;;;;;;0.00;0.00;;;;;;;19.02;82.31;99885.59;5049141;28;20078;-76
2023/07/11 07:45:54;;;;;;;0.00;0.00;;;;;;;18.89;81.07;99886.66;5044170;28;20582;-76
2023/07/11 07:48:20;;;;;;;0.00;0.00;;;;;;;19.33;80.15;99872.50;5052396;28;20114;-77
2023/07/11 07:50:46;;;;;;;0.00;0.00;;;;;;;19.73;78.23;99879.47;5059829;28;20039;-76
2023/07/11 07:53:12;;;;;;;0.00;0.00;;;;;;;19.81;77.24;99873.88;5042927;28;20036;-76
2023/07/11 07:55:38;;;;;;;0.00;0.00;;;;;;;19.97;76.88;99862.94;5086813;28;20020;-75
2023/07/11 07:58:04;;;;;;;0.00;0.00;;;;;;;20.02;76.99;99878.59;5060892;28;20371;-75
2023/07/11 08:00:30;;;;;;;0.00;0.00;;;;;;;20.08;74.54;99873.59;5070361;28;20020;-75
2023/07/11 08:02:56;;;;;;;0.00;0.00;;;;;;;20.10;75.26;99885.19;5063556;28;20544;-75
2023/07/11 08:05:21;;;;;;;0.00;0.00;;;;;;;20.05;72.68;99873.16;5052925;28;20093;-76
2023/07/11 08:07:49;;;;;;;0.00;0.00;;;;;;;20.08;72.01;99876.38;5067464;28;20474;-74
2023/07/11 08:10:16;;;;;;;0.00;0.00;;;;;;;20.20;72.47;99879.19;5063375;28;20496;-78
2023/07/11 08:12:43;;;;;;;0.00;0.00;;;;;;;20.43;72.74;99887.06;5068847;28;20039;-76
2023/07/11 08:15:11;;;;;;;0.00;0.00;;;;;;;20.61;72.90;99885.69;5048651;28;20032;-77
2023/07/11 08:17:37;;;;;;;0.00;0.00;;;;;;;20.75;70.33;99902.88;5067812;28;20039;-76
2023/07/11 08:20:03;;;;;;;0.00;0.00;;;;;;;20.84;69.72;99882.50;5078041;28;20035;-76
2023/07/11 08:22:29;;;;;;;0.00;0.00;;;;;;;20.79;68.49;99879.94;5046135;28;20421;-78
2023/07/11 08:24:54;;;;;;;0.00;0.00;;;;;;;20.69;68.11;99868.16;5040761;28;20028;-76
2023/07/11 08:27:20;;;;;;;0.00;0.00;;;;;;;20.79;68.17;99868.81;5039071;28;20455;-77
2023/07/11 08:29:45;;;;;;;0.00;0.00;;;;;;;20.76;67.89;99867.56;5029588;28;20823;-76
2023/07/11 08:32:12;;;;;;;0.00;0.00;;;;;;;20.65;68.72;99864.41;5053677;28;20043;-76
2023/07/11 08:34:41;;;;;;;0.00;0.00;;;;;;;20.31;68.07;99865.66;5062003;28;20046;-78
2023/07/11 08:37:07;;;;;;;0.00;0.00;;;;;;;20.19;70.06;99858.97;5057961;28;20040;-76
2023/07/11 08:39:32;;;;;;;0.00;0.00;;;;;;;20.39;68.94;99870.31;5049333;28;20046;-76
2023/07/11 08:42:05;;;;;;;0.00;0.00;;;;;;;20.78;69.25;99868.03;5050015;28;20445;-76
2023/07/11 08:44:46;;;;;;;0.00;0.00;;;;;;;21.28;68.30;99868.75;5082455;28;20021;-76
2023/07/11 08:47:28;;;;;;;0.00;0.00;;;;;;;21.51;66.83;99874.59;5072239;28;20012;-78
2023/07/11 08:50:02;;;;;;;0.00;0.00;;;;;;;21.43;65.05;99865.19;5076503;28;20036;-76
2023/07/11 08:52:29;;;;;;;0.00;0.00;;;;;;;21.50;65.80;99852.69;5079225;28;20024;-77
2023/07/11 08:55:00;;;;;;;0.00;0.00;;;;;;;21.58;65.03;99848.94;5068150;28;20385;-76
2023/07/11 08:57:29;;;;;;;0.00;0.00;;;;;;;21.65;63.00;99849.16;5082904;28;20081;-76
2023/07/11 09:00:05;;;;;;;0.00;0.00;;;;;;;21.79;63.41;99855.09;5070238;28;20054;-76
2023/07/11 09:02:42;;;;;;;0.00;0.00;;;;;;;21.76;61.89;99839.13;5073578;28;20076;-75
2023/07/11 09:05:16;;;;;;;0.00;0.00;;;;;;;21.65;60.60;99821.31;5060533;28;20027;-76
2023/07/11 09:07:43;;;;;;;0.00;0.00;;;;;;;21.60;62.61;99841.06;5078384;28;20031;-77
2023/07/11 09:10:33;;;;;;;0.00;0.00;;;;;;;21.79;63.15;99843.19;5062001;28;20024;-77
2023/07/11 09:13:04;;;;;;;0.00;0.00;;;;;;;21.88;62.57;99845.81;5083565;28;20111;-78
2023/07/11 09:16:05;;;;;;;0.00;0.00;;;;;;;21.82;60.73;99848.03;5069973;28;20082;-78
2023/07/11 09:18:45;;;;;;;0.00;0.00;;;;;;;22.21;60.20;99850.22;5045466;28;20040;-77
2023/07/11 09:21:39;;;;;;;0.00;0.00;;;;;;;22.66;59.29;99857.31;5055706;28;20028;-79
2023/07/11 09:24:30;;;;;;;0.00;0.00;;;;;;;22.86;58.07;99843.44;5066806;28;20474;-77
2023/07/11 09:27:02;;;;;;;0.00;0.00;;;;;;;22.89;55.62;99835.16;5053766;28;20055;-78
2023/07/11 09:29:28;;;;;;;0.00;0.00;;;;;;;22.58;56.93;99831.28;5075434;28;20012;-77
2023/07/11 09:31:58;;;;;;;0.00;0.00;;;;;;;22.50;57.18;99846.19;5060268;28;20024;-76
2023/07/11 09:34:26;;;;;;;0.00;0.00;;;;;;;22.50;58.11;99837.84;5074277;28;21123;-79
2023/07/11 09:36:55;;;;;;;0.00;0.00;;;;;;;22.56;57.77;99841.97;5060935;28;20077;-78
2023/07/11 09:39:59;;;;;;;0.00;0.00;;;;;;;22.59;58.02;99846.81;5060576;28;20024;-77
2023/07/11 09:42:48;;;;;;;0.00;0.00;;;;;;;22.97;57.21;99852.88;5065137;28;20040;-77
2023/07/11 09:45:20;;;;;;;0.00;0.00;;;;;;;23.36;54.75;99836.19;5058063;28;20111;-77
2023/07/11 09:47:58;;;;;;;0.00;0.00;;;;;;;23.53;54.20;99838.53;5081577;28;20016;-77
2023/07/11 09:50:30;;;;;;;0.00;0.00;;;;;;;23.73;53.61;99846.88;5067010;28;20057;-77
2023/07/11 09:52:58;;;;;;;0.00;0.00;;;;;;;23.79;52.77;99842.63;5082924;28;20055;-77
2023/07/11 09:55:34;;;;;;;0.00;0.00;;;;;;;23.98;51.06;99846.59;5070744;28;20024;-77
2023/07/11 09:58:01;;;;;;;0.00;0.00;;;;;;;24.32;50.36;99844.75;5059056;28;20528;-78
2023/07/11 10:00:26;;;;;;;0.00;0.00;;;;;;;24.39;50.15;99861.66;5050467;28;20025;-77
2023/07/11 10:02:51;;;;;;;0.00;0.00;;;;;;;24.81;50.08;99853.53;5054274;28;20498;-76
2023/07/11 10:05:20;;;;;;;0.00;0.00;;;;;;;25.30;48.69;99847.00;5069286;28;20039;-77
2023/07/11 10:08:08;;;;;;;0.00;0.00;;;;;;;25.42;48.83;99838.41;5071849;28;20024;-78
2023/07/11 10:10:33;;;;;;;0.00;0.00;;;;;;;25.54;48.07;99851.34;5064072;28;20402;-76
2023/07/11 10:13:10;;;;;;;0.00;0.00;;;;;;;25.39;47.59;99861.56;5054674;28;20028;-79
2023/07/11 10:15:37;;;;;;;0.00;0.00;;;;;;;24.89;48.24;99855.25;5073137;28;20493;-78
2023/07/11 10:18:04;;;;;;;0.00;0.00;;;;;;;24.05;50.84;99855.09;5050833;28;20036;-78
2023/07/11 10:20:31;;;;;;;0.00;0.00;;;;;;;23.59;51.69;99868.94;5035561;28;20028;-78
2023/07/11 10:23:05;;;;;;;0.00;0.00;;;;;;;23.00;52.84;99866.88;5059107;28;20028;-78
2023/07/11 10:25:31;;;;;;;0.00;0.00;;;;;;;22.35;54.88;99847.03;5060324;28;20028;-77
2023/07/11 10:28:08;;;;;;;0.00;0.00;;;;;;;22.23;55.40;99856.25;5074534;28;20059;-78
2023/07/11 10:30:37;;;;;;;0.00;0.00;;;;;;;22.36;56.34;99860.59;5071253;28;20638;-78
2023/07/11 10:33:15;;;;;;;0.00;0.00;;;;;;;22.13;55.82;99847.25;5085681;28;20033;-78
2023/07/11 10:35:41;;;;;;;0.00;0.00;;;;;;;21.64;56.51;99852.28;5074566;28;20414;-78
2023/07/11 10:38:20;;;;;;;0.00;0.00;;;;;;;21.10;58.43;99846.78;5035754;28;20033;-77
2023/07/11 10:40:51;;;;;;;0.00;0.00;;;;;;;20.94;59.89;99865.34;5074475;28;20032;-78
2023/07/11 10:43:35;;;;;;;0.00;0.00;;;;;;;20.70;59.92;99841.97;5061124;28;20135;-77
2023/07/11 10:46:16;;;;;;;0.00;0.00;;;;;;;20.44;61.47;99833.16;5067203;28;20056;-77
2023/07/11 10:48:49;;;;;;;0.00;0.00;;;;;;;20.08;63.07;99846.69;5056216;28;20017;-77
2023/07/11 10:51:21;;;;;;;0.00;0.00;;;;;;;20.01;63.93;99847.22;5059269;28;20027;-77
2023/07/11 10:54:03;;;;;;;0.00;0.00;;;;;;;20.36;64.20;99852.38;5071979;28;20031;-78
2023/07/11 10:56:38;;;;;;;0.00;0.00;;;;;;;20.75;62.85;99852.84;5087978;28;20477;-78
2023/07/11 10:59:04;;;;;;;0.00;0.00;;;;;;;20.95;61.63;99844.72;5073135;28;20178;-78
2023/07/11 11:02:10;;;;;;;0.00;0.00;;;;;;;21.20;61.39;99844.66;5036821;28;20119;-77
2023/07/11 11:04:50;;;;;;;0.00;0.00;;;;;;;21.49;60.49;99856.63;5014815;28;20037;-79
2023/07/11 11:07:39;;;;;;;0.00;0.00;;;;;;;21.73;59.96;99834.28;5015182;28;20394;-78
2023/07/11 11:10:10;;;;;;;0.00;0.00;;;;;;;22.22;58.36;99838.72;5072282;28;20122;-77
2023/07/11 11:12:51;;;;;;;0.00;0.00;;;;;;;22.76;57.47;99851.19;5057468;28;20043;-77
2023/07/11 11:15:31;;;;;;;0.00;0.00;;;;;;;23.16;56.01;99835.38;5071130;28;20115;-78
2023/07/11 11:18:04;;;;;;;0.00;0.00;;;;;;;23.30;53.92;99835.66;5075618;28;20539;-79
2023/07/11 11:21:00;;;;;;;0.00;0.00;;;;;;;23.44;53.82;99840.75;5075947;28;20055;-77
2023/07/11 11:23:31;;;;;;;0.00;0.00;;;;;;;23.55;54.29;99832.56;5063156;28;20022;-78
2023/07/11 11:26:22;;;;;;;0.00;0.00;;;;;;;23.80;52.62;99821.91;5061055;28;20027;-78
2023/07/11 11:29:00;;;;;;;0.00;0.00;;;;;;;23.50;51.84;99822.53;5085298;28;20020;-78
2023/07/11 11:31:28;;;;;;;0.00;0.00;;;;;;;22.99;53.69;99819.84;5063628;28;20021;-77
2023/07/11 11:34:12;;;;;;;0.00;0.00;;;;;;;23.21;53.23;99812.78;5054576;28;20031;-77
2023/07/11 11:36:57;;;;;;;0.00;0.00;;;;;;;24.54;51.62;99822.75;5083056;28;20021;-78
2023/07/11 11:39:41;;;;;;;0.00;0.00;;;;;;;26.00;47.59;99827.06;5068325;28;20040;-76
2023/07/11 11:42:20;;;;;;;0.00;0.00;;;;;;;24.96;48.37;99823.81;5067247;28;20072;-78
2023/07/11 11:44:53;;;;;;;0.00;0.00;;;;;;;24.09;50.27;99808.47;5060730;28;20028;-77